Time;durP1;ratioP1;P1;durP2;ratioP2;P2;SDS_P1;SDS_P2;PMS_P1;PMS_P2;Temp;Humidity;BMP_temperature;BMP_pressure;BME280_temperature;BME280_humidity;BME280_pressure;Samples;Min_cycle;Max_cycle;Signal;HPM_P1;HPM_P2
2021/07/29 00:02:25;;;;;;;10.20;2.25;;;17.60;99.90;;;;;;5078513;28;20605;-77
2021/07/29 00:04:51;;;;;;;7.03;2.30;;;17.60;99.90;;;;;;5079530;28;20513;-76
2021/07/29 00:07:16;;;;;;;7.28;2.17;;;17.60;99.90;;;;;;5096960;28;20693;-76
2021/07/29 00:09:46;;;;;;;10.13;2.25;;;17.60;99.90;;;;;;5059538;28;20179;-76
2021/07/29 00:12:12;;;;;;;6.05;2.30;;;17.60;99.90;;;;;;5062670;28;20374;-76
2021/07/29 00:14:38;;;;;;;12.48;2.90;;;17.50;99.90;;;;;;5062797;28;20228;-78
2021/07/29 00:17:06;;;;;;;9.73;2.20;;;17.50;99.90;;;;;;5062413;28;20277;-77
2021/07/29 00:19:31;;;;;;;5.78;2.00;;;17.40;99.90;;;;;;5095053;28;20258;-77
2021/07/29 00:21:57;;;;;;;5.18;2.10;;;17.30;99.90;;;;;;5077079;28;20180;-77
2021/07/29 00:24:26;;;;;;;17.30;2.25;;;17.30;99.90;;;;;;5058801;28;20175;-77
2021/07/29 00:26:51;;;;;;;7.75;2.13;;;17.30;99.90;;;;;;5059492;28;20167;-76
2021/07/29 00:29:17;;;;;;;8.00;2.33;;;17.20;99.90;;;;;;5093726;28;20178;-76
2021/07/29 00:31:43;;;;;;;4.43;1.80;;;17.20;99.90;;;;;;5096916;28;20540;-77
2021/07/29 00:34:09;;;;;;;3.17;1.65;;;17.10;99.90;;;;;;5078822;28;20170;-77
2021/07/29 00:36:34;;;;;;;6.15;2.83;;;17.10;99.90;;;;;;5078660;28;20730;-76
2021/07/29 00:39:00;;;;;;;4.68;2.17;;;17.10;99.90;;;;;;5064220;28;20266;-76
2021/07/29 00:41:26;;;;;;;9.00;2.63;;;17.10;99.90;;;;;;5058763;28;20175;-77
2021/07/29 00:44:03;;;;;;;9.90;2.42;;;17.10;99.90;;;;;;5076329;28;20647;-76
2021/07/29 00:46:31;;;;;;;12.50;3.08;;;17.00;99.90;;;;;;5058650;28;20162;-76
2021/07/29 00:48:57;;;;;;;8.48;2.60;;;17.00;99.90;;;;;;5058398;28;20250;-77
2021/07/29 00:51:24;;;;;;;5.60;2.35;;;17.00;99.90;;;;;;5076354;28;20167;-78
2021/07/29 00:53:50;;;;;;;6.45;1.88;;;16.90;99.90;;;;;;5058170;28;20174;-77
2021/07/29 00:56:17;;;;;;;5.55;1.92;;;16.90;99.90;;;;;;5076209;28;20167;-76
2021/07/29 00:58:43;;;;;;;12.35;2.33;;;16.90;99.90;;;;;;5087726;28;20243;-76
2021/07/29 01:01:09;;;;;;;5.53;1.73;;;16.90;99.90;;;;;;5096673;28;20178;-76
2021/07/29 01:03:34;;;;;;;9.82;2.20;;;16.90;99.90;;;;;;5096459;28;20170;-76
2021/07/29 01:06:00;;;;;;;11.18;2.20;;;17.00;99.90;;;;;;5096125;28;20561;-77
2021/07/29 01:08:25;;;;;;;6.65;2.40;;;17.00;99.90;;;;;;5057500;28;20523;-76
2021/07/29 01:10:51;;;;;;;4.47;2.25;;;17.00;99.90;;;;;;5076224;28;20175;-76
2021/07/29 01:13:17;;;;;;;5.38;1.83;;;17.00;99.90;;;;;;5058088;28;20171;-76
2021/07/29 01:15:42;;;;;;;6.28;2.40;;;17.10;99.90;;;;;;5076004;28;20170;-76
2021/07/29 01:18:08;;;;;;;7.35;3.17;;;17.10;99.90;;;;;;5060324;28;20273;-74
2021/07/29 01:20:33;;;;;;;11.38;2.45;;;17.10;99.90;;;;;;5075858;28;20214;-75
2021/07/29 01:22:59;;;;;;;7.30;2.22;;;17.10;99.90;;;;;;5075842;28;20166;-76
2021/07/29 01:25:25;;;;;;;6.47;2.05;;;17.10;99.90;;;;;;5075805;28;20166;-76
2021/07/29 01:27:50;;;;;;;5.95;2.30;;;17.10;99.90;;;;;;5027819;28;20524;-76
2021/07/29 01:30:16;;;;;;;15.80;2.25;;;17.20;99.90;;;;;;5095524;28;20202;-76
2021/07/29 01:32:42;;;;;;;4.55;2.08;;;17.10;99.90;;;;;;5095935;28;20162;-76
2021/07/29 01:35:08;;;;;;;5.32;1.95;;;17.20;99.90;;;;;;5095876;28;20201;-76
2021/07/29 01:37:35;;;;;;;10.30;2.47;;;17.20;99.90;;;;;;5078878;28;20547;-76
2021/07/29 01:40:01;;;;;;;8.32;2.00;;;17.10;99.90;;;;;;5077422;28;20266;-78
2021/07/29 01:42:26;;;;;;;13.70;2.58;;;17.10;99.90;;;;;;5077363;28;20198;-75
2021/07/29 01:44:52;;;;;;;4.85;2.25;;;17.10;99.90;;;;;;5095594;28;20655;-78
2021/07/29 01:47:18;;;;;;;4.47;2.00;;;17.10;99.90;;;;;;5089132;28;20177;-76
2021/07/29 01:49:43;;;;;;;4.72;1.67;;;17.10;99.90;;;;;;5075351;28;20171;-76
2021/07/29 01:52:10;;;;;;;9.88;2.30;;;17.20;99.90;;;;;;5069670;28;20264;-76
2021/07/29 01:54:36;;;;;;;7.38;2.33;;;17.20;99.90;;;;;;5060810;28;20632;-76
2021/07/29 01:57:04;;;;;;;4.55;2.08;;;17.20;99.90;;;;;;5095030;28;20284;-76
2021/07/29 01:59:34;;;;;;;5.55;1.80;;;17.20;99.90;;;;;;5072870;28;20183;-75
2021/07/29 02:01:59;;;;;;;7.30;2.25;;;17.20;99.90;;;;;;5040557;28;20178;-76
2021/07/29 02:04:25;;;;;;;6.22;2.30;;;17.10;99.90;;;;;;5074805;28;20220;-76
2021/07/29 02:06:51;;;;;;;4.68;2.08;;;17.10;99.90;;;;;;5057077;28;20186;-75
2021/07/29 02:09:16;;;;;;;5.63;1.75;;;17.00;99.90;;;;;;5056731;28;20171;-78
2021/07/29 02:11:49;;;;;;;3.10;1.55;;;16.90;99.90;;;;;;5040352;28;20178;-76
2021/07/29 02:14:16;;;;;;;8.05;2.20;;;16.90;99.90;;;;;;5056844;28;20182;-76
2021/07/29 02:16:42;;;;;;;8.00;2.53;;;16.90;99.90;;;;;;5077356;28;20347;-76
2021/07/29 02:19:08;;;;;;;13.63;2.38;;;16.90;99.90;;;;;;5093096;28;20249;-76
2021/07/29 02:21:33;;;;;;;10.35;2.30;;;17.00;99.90;;;;;;5056440;28;20198;-76
2021/07/29 02:23:59;;;;;;;6.88;2.00;;;17.00;99.90;;;;;;5061245;28;20225;-76
2021/07/29 02:26:24;;;;;;;7.72;2.28;;;17.10;99.90;;;;;;5056789;28;20177;-77
2021/07/29 02:28:50;;;;;;;8.95;2.20;;;17.20;99.90;;;;;;5039932;28;20171;-76
2021/07/29 02:31:16;;;;;;;4.82;1.90;;;17.30;99.90;;;;;;5074830;28;20576;-76
2021/07/29 02:33:42;;;;;;;7.05;1.83;;;17.30;99.90;;;;;;5059347;28;20184;-77
2021/07/29 02:36:07;;;;;;;12.32;2.40;;;17.20;99.90;;;;;;5094690;28;20756;-77
2021/07/29 02:38:33;;;;;;;6.43;2.45;;;17.20;99.90;;;;;;5076544;28;20684;-76
2021/07/29 02:40:59;;;;;;;8.23;2.08;;;17.20;99.90;;;;;;5071963;28;20178;-76
2021/07/29 02:43:24;;;;;;;8.52;2.50;;;17.10;99.90;;;;;;5094602;28;20683;-75
2021/07/29 02:45:50;;;;;;;7.50;2.35;;;17.10;99.90;;;;;;5094492;28;20620;-76
2021/07/29 02:48:15;;;;;;;5.78;2.45;;;17.00;99.90;;;;;;5079419;28;20182;-76
2021/07/29 02:50:41;;;;;;;5.90;2.22;;;16.90;99.90;;;;;;5039483;28;20183;-79
2021/07/29 02:53:07;;;;;;;7.47;1.98;;;16.90;99.90;;;;;;5056595;28;20201;-76
2021/07/29 02:55:32;;;;;;;11.60;2.58;;;16.80;99.90;;;;;;5073723;28;20242;-76
2021/07/29 02:57:58;;;;;;;6.90;2.47;;;16.70;99.90;;;;;;5056089;28;20238;-77
2021/07/29 03:00:23;;;;;;;13.95;2.30;;;16.60;99.90;;;;;;5055819;28;20521;-76
2021/07/29 03:02:49;;;;;;;5.78;2.38;;;16.60;99.90;;;;;;5073940;28;20177;-76
2021/07/29 03:05:15;;;;;;;12.63;2.50;;;16.40;99.90;;;;;;5039488;28;20177;-76
2021/07/29 03:07:40;;;;;;;10.73;2.78;;;16.40;99.90;;;;;;5065888;28;20186;-78
2021/07/29 03:10:06;;;;;;;16.80;2.65;;;16.30;99.90;;;;;;5093107;28;20177;-81
2021/07/29 03:12:32;;;;;;;13.68;2.55;;;16.30;99.90;;;;;;5093960;28;20170;-75
2021/07/29 03:14:57;;;;;;;8.77;2.50;;;16.20;99.90;;;;;;5093711;28;20170;-77
2021/07/29 03:17:23;;;;;;;8.75;2.53;;;16.20;99.90;;;;;;5093502;28;20192;-75
2021/07/29 03:19:49;;;;;;;12.90;2.30;;;16.20;99.90;;;;;;5082748;28;20205;-78
2021/07/29 03:22:14;;;;;;;15.07;2.53;;;16.10;99.90;;;;;;5055867;28;20201;-76
2021/07/29 03:24:40;;;;;;;8.98;2.22;;;16.00;99.90;;;;;;5073646;28;20170;-76
2021/07/29 03:27:05;;;;;;;8.10;2.45;;;16.00;99.90;;;;;;5067696;28;20632;-76
2021/07/29 03:29:31;;;;;;;11.40;2.60;;;15.90;99.90;;;;;;5075464;28;20170;-78
2021/07/29 03:31:57;;;;;;;9.45;2.90;;;15.90;99.90;;;;;;5093668;28;20174;-78
2021/07/29 03:34:22;;;;;;;10.88;2.17;;;15.90;99.90;;;;;;5093940;28;20181;-76
2021/07/29 03:36:48;;;;;;;10.77;2.72;;;15.90;99.90;;;;;;5092968;28;20537;-76
2021/07/29 03:39:14;;;;;;;9.38;2.28;;;15.80;99.90;;;;;;5079053;28;20235;-76
2021/07/29 03:41:40;;;;;;;15.70;2.50;;;15.80;99.90;;;;;;5073756;28;20611;-77
2021/07/29 03:44:05;;;;;;;16.42;3.15;;;15.80;99.90;;;;;;5073452;28;20166;-76
2021/07/29 03:46:31;;;;;;;7.93;3.05;;;15.80;99.90;;;;;;5055390;28;20181;-77
2021/07/29 03:48:58;;;;;;;10.98;2.72;;;15.70;99.90;;;;;;5055519;28;20613;-76
2021/07/29 03:51:24;;;;;;;9.30;2.50;;;15.70;99.90;;;;;;5038780;28;20527;-76
2021/07/29 03:53:50;;;;;;;5.53;2.05;;;15.70;99.90;;;;;;5073325;28;20573;-76
2021/07/29 03:56:16;;;;;;;5.93;2.38;;;15.60;99.90;;;;;;5073448;28;20175;-75
2021/07/29 03:58:42;;;;;;;9.95;2.38;;;15.60;99.90;;;;;;5087244;28;20231;-76
2021/07/29 04:01:09;;;;;;;14.30;3.97;;;15.60;99.90;;;;;;5093257;28;20166;-77
2021/07/29 04:03:35;;;;;;;15.35;2.70;;;15.60;99.90;;;;;;5075301;28;20516;-77
2021/07/29 04:06:01;;;;;;;9.25;2.00;;;15.60;99.90;;;;;;5093461;28;20220;-76
2021/07/29 04:08:27;;;;;;;6.85;2.05;;;15.60;99.90;;;;;;5080064;28;20179;-75
2021/07/29 04:10:53;;;;;;;10.98;2.55;;;15.50;99.90;;;;;;5073282;28;20232;-75
2021/07/29 04:13:19;;;;;;;10.85;2.25;;;15.50;99.90;;;;;;5055161;28;20179;-75
2021/07/29 04:15:45;;;;;;;10.18;2.40;;;15.50;99.90;;;;;;5055222;28;20211;-77
2021/07/29 04:18:10;;;;;;;12.80;2.53;;;15.50;99.90;;;;;;5055225;28;20281;-76
2021/07/29 04:20:36;;;;;;;7.93;2.42;;;15.50;99.90;;;;;;5055468;28;20523;-75
2021/07/29 04:23:02;;;;;;;10.82;2.42;;;15.50;99.90;;;;;;5055282;28;20185;-77
2021/07/29 04:25:27;;;;;;;11.60;2.45;;;15.50;99.90;;;;;;5073092;28;20197;-76
2021/07/29 04:27:53;;;;;;;15.75;3.00;;;15.50;99.90;;;;;;5063288;28;20178;-76
2021/07/29 04:30:19;;;;;;;14.00;2.90;;;15.50;99.90;;;;;;5059365;28;20178;-76
2021/07/29 04:32:44;;;;;;;9.93;2.10;;;15.50;99.90;;;;;;5055139;28;20177;-76
2021/07/29 04:35:10;;;;;;;10.88;2.45;;;15.50;99.90;;;;;;5055097;28;20166;-77
2021/07/29 04:37:35;;;;;;;6.50;2.58;;;15.50;99.90;;;;;;5072898;28;20659;-75
2021/07/29 04:40:02;;;;;;;10.57;2.97;;;15.50;99.90;;;;;;5072879;28;20181;-76
2021/07/29 04:42:28;;;;;;;6.43;2.10;;;15.60;99.90;;;;;;5072552;28;20578;-76
2021/07/29 04:44:53;;;;;;;8.98;2.42;;;15.50;99.90;;;;;;5076481;28;20167;-76
2021/07/29 04:47:19;;;;;;;17.45;3.15;;;15.60;99.90;;;;;;5061498;28;20228;-76
2021/07/29 04:49:45;;;;;;;13.93;2.60;;;15.70;99.90;;;;;;5096667;28;20166;-76
2021/07/29 04:52:10;;;;;;;16.90;2.85;;;15.70;99.90;;;;;;5078700;28;20205;-76
2021/07/29 04:54:36;;;;;;;9.20;3.00;;;15.70;99.90;;;;;;5096590;28;20170;-76
2021/07/29 04:57:02;;;;;;;8.77;2.67;;;15.80;99.90;;;;;;5095245;28;20530;-76
2021/07/29 04:59:27;;;;;;;10.27;2.33;;;15.90;99.90;;;;;;5091094;28;20200;-76
2021/07/29 05:01:53;;;;;;;7.95;2.42;;;16.10;99.90;;;;;;5096530;28;20182;-75
2021/07/29 05:04:18;;;;;;;9.48;2.45;;;16.60;99.90;;;;;;5096467;28;20507;-76
2021/07/29 05:06:44;;;;;;;5.30;2.05;;;17.50;99.90;;;;;;5096376;28;20231;-77
2021/07/29 05:09:10;;;;;;;10.80;2.08;;;18.30;99.90;;;;;;5086726;28;20181;-76
2021/07/29 05:11:38;;;;;;;4.80;1.45;;;19.10;99.90;;;;;;5088610;28;20182;-77
2021/07/29 05:14:04;;;;;;;12.32;2.80;;;19.70;99.90;;;;;;5092117;28;20190;-76
2021/07/29 05:16:30;;;;;;;8.40;1.95;;;20.00;99.90;;;;;;5075895;28;20240;-77
2021/07/29 05:18:55;;;;;;;11.18;1.88;;;20.00;99.90;;;;;;5057985;28;20176;-77
2021/07/29 05:21:21;;;;;;;11.05;2.65;;;19.60;99.90;;;;;;5075835;28;20511;-77
2021/07/29 05:23:48;;;;;;;9.55;2.00;;;19.30;99.90;;;;;;5075843;28;20171;-76
2021/07/29 05:26:17;;;;;;;6.63;1.83;;;19.40;99.90;;;;;;5058124;28;20265;-76
2021/07/29 05:28:44;;;;;;;7.38;2.40;;;19.80;99.90;;;;;;5057647;28;20186;-77
2021/07/29 05:31:11;;;;;;;6.35;2.05;;;20.40;99.90;;;;;;5057728;28;20220;-76
2021/07/29 05:33:37;;;;;;;6.72;1.77;;;20.80;99.90;;;;;;5075462;28;20201;-80
2021/07/29 05:36:04;;;;;;;7.57;1.80;;;21.10;99.90;;;;;;5075618;28;20264;-77
2021/07/29 05:38:30;;;;;;;5.93;1.83;;;21.30;99.90;;;;;;5087637;28;20284;-76
2021/07/29 05:40:58;;;;;;;10.00;2.20;;;21.70;99.90;;;;;;5095532;28;20269;-76
2021/07/29 05:43:25;;;;;;;7.43;1.70;;;21.70;99.90;;;;;;5095697;28;20635;-77
2021/07/29 05:45:51;;;;;;;9.30;2.03;;;21.80;99.90;;;;;;5095662;28;20173;-77
2021/07/29 05:48:17;;;;;;;8.98;1.73;;;22.10;99.90;;;;;;5095508;28;20502;-77
2021/07/29 05:50:43;;;;;;;8.95;2.15;;;22.50;99.90;;;;;;5077572;28;20181;-77
2021/07/29 05:53:09;;;;;;;11.52;1.90;;;22.10;99.90;;;;;;5090067;28;20174;-76
2021/07/29 05:55:34;;;;;;;8.00;2.00;;;22.10;99.90;;;;;;5074010;28;20668;-77
2021/07/29 05:58:00;;;;;;;7.63;1.98;;;22.60;99.90;;;;;;5075005;28;20223;-77
2021/07/29 06:00:26;;;;;;;9.20;1.73;;;22.80;99.90;;;;;;5075103;28;20220;-75
2021/07/29 06:02:52;;;;;;;5.97;1.77;;;23.00;99.90;;;;;;5075113;28;20206;-77
2021/07/29 06:05:18;;;;;;;6.90;2.13;;;22.60;99.90;;;;;;5092818;28;20178;-77
2021/07/29 06:07:44;;;;;;;12.90;2.03;;;23.00;99.90;;;;;;5089660;28;20183;-77
2021/07/29 06:10:10;;;;;;;6.93;1.95;;;22.20;99.90;;;;;;5090875;28;20178;-78
2021/07/29 06:12:36;;;;;;;12.75;2.38;;;21.60;99.90;;;;;;5095122;28;20227;-77
2021/07/29 06:15:02;;;;;;;6.95;1.92;;;22.00;99.90;;;;;;5067132;28;20173;-77
2021/07/29 06:17:32;;;;;;;7.95;2.05;;;23.00;99.90;;;;;;5077232;28;20195;-78
2021/07/29 06:20:04;;;;;;;8.48;1.65;;;24.00;99.90;;;;;;5076741;28;20182;-77
2021/07/29 06:22:34;;;;;;;9.43;2.08;;;24.70;99.90;;;;;;5077863;28;20158;-76
2021/07/29 06:25:00;;;;;;;12.88;2.35;;;25.50;99.90;;;;;;5092502;28;20205;-78
2021/07/29 06:27:26;;;;;;;6.82;2.10;;;26.10;99.90;;;;;;5076820;28;20198;-78
2021/07/29 06:29:52;;;;;;;7.63;1.98;;;26.20;99.90;;;;;;5081890;28;20175;-76
2021/07/29 06:32:18;;;;;;;9.88;2.20;;;26.50;99.90;;;;;;5056466;28;20186;-77
2021/07/29 06:34:43;;;;;;;10.23;2.13;;;26.50;99.90;;;;;;5056444;28;20174;-75
2021/07/29 06:37:09;;;;;;;16.02;1.83;;;25.80;99.90;;;;;;5074253;28;20199;-74
2021/07/29 06:39:34;;;;;;;7.88;1.73;;;25.90;99.90;;;;;;5074136;28;20178;-76
2021/07/29 06:42:00;;;;;;;7.25;2.50;;;26.20;99.90;;;;;;5056340;28;20167;-78
2021/07/29 06:44:26;;;;;;;5.43;1.70;;;26.40;99.90;;;;;;5074227;28;20162;-79
2021/07/29 06:46:51;;;;;;;9.63;2.05;;;26.40;99.90;;;;;;5080690;28;20178;-77
2021/07/29 06:49:17;;;;;;;12.15;2.28;;;26.00;99.90;;;;;;5076152;28;20227;-78
2021/07/29 06:51:43;;;;;;;5.30;2.00;;;25.80;99.90;;;;;;5094394;28;20620;-76
2021/07/29 06:54:08;;;;;;;16.70;2.75;;;25.90;99.90;;;;;;5094346;28;20168;-74
2021/07/29 06:56:34;;;;;;;12.35;2.10;;;25.50;99.90;;;;;;5075731;28;20214;-78
2021/07/29 06:59:00;;;;;;;8.77;2.13;;;25.90;99.90;;;;;;5071041;28;20269;-76
2021/07/29 07:01:26;;;;;;;7.25;2.17;;;26.70;99.90;;;;;;5073925;28;20533;-77
2021/07/29 07:03:52;;;;;;;7.57;2.45;;;27.10;99.90;;;;;;5073871;28;20173;-78
2021/07/29 07:06:18;;;;;;;5.30;1.73;;;27.90;99.90;;;;;;5073555;28;20167;-77
2021/07/29 07:08:44;;;;;;;11.93;2.38;;;28.70;99.90;;;;;;5084979;28;20174;-77
2021/07/29 07:11:17;;;;;;;6.78;2.33;;;28.60;99.90;;;;;;5094104;28;20170;-77
2021/07/29 07:13:44;;;;;;;9.98;2.67;;;27.70;99.90;;;;;;5075862;28;20242;-77
2021/07/29 07:16:11;;;;;;;8.57;1.90;;;26.60;99.90;;;;;;5090277;28;20159;-75
2021/07/29 07:18:37;;;;;;;14.27;2.72;;;26.00;99.90;;;;;;5085252;28;20224;-76
2021/07/29 07:21:04;;;;;;;9.88;2.65;;;26.20;99.90;;;;;;5075784;28;20166;-77
2021/07/29 07:23:30;;;;;;;12.57;2.30;;;26.90;99.90;;;;;;5075418;28;20258;-76
2021/07/29 07:25:55;;;;;;;8.70;2.57;;;26.70;99.90;;;;;;5091811;28;20447;-76
2021/07/29 07:28:21;;;;;;;6.55;2.58;;;26.00;99.90;;;;;;5062943;28;20209;-76
2021/07/29 07:30:47;;;;;;;10.38;2.50;;;27.60;99.90;;;;;;5075900;28;20616;-75
2021/07/29 07:33:12;;;;;;;8.38;2.65;;;28.40;99.90;;;;;;5042324;28;20169;-75
2021/07/29 07:35:38;;;;;;;13.23;2.17;;;28.20;99.90;;;;;;5085969;28;20173;-76
2021/07/29 07:38:03;;;;;;;9.15;2.58;;;28.20;99.90;;;;;;5060523;28;20666;-76
2021/07/29 07:40:29;;;;;;;10.52;2.75;;;28.50;99.90;;;;;;5075866;28;20201;-77
2021/07/29 07:42:56;;;;;;;13.65;2.85;;;27.40;99.90;;;;;;5075383;28;20177;-77
2021/07/29 07:45:22;;;;;;;13.20;2.17;;;27.50;99.90;;;;;;5093337;28;20524;-77
2021/07/29 07:47:47;;;;;;;7.25;2.20;;;27.10;99.90;;;;;;5072614;28;20178;-76
2021/07/29 07:50:13;;;;;;;9.55;2.33;;;27.50;99.90;;;;;;5038957;28;20198;-75
2021/07/29 07:52:39;;;;;;;11.07;3.25;;;27.20;99.90;;;;;;5073326;28;20676;-76
2021/07/29 07:55:05;;;;;;;19.33;3.08;;;27.60;99.90;;;;;;5073196;28;20167;-75
2021/07/29 07:57:30;;;;;;;13.20;2.83;;;27.10;99.90;;;;;;5046708;28;20245;-76
2021/07/29 07:59:58;;;;;;;7.13;2.35;;;27.60;99.90;;;;;;5092633;28;20624;-79
2021/07/29 08:02:25;;;;;;;8.30;2.40;;;28.60;99.90;;;;;;5075095;28;20177;-78
2021/07/29 08:04:51;;;;;;;11.73;3.30;;;29.50;99.90;;;;;;5075840;28;20166;-77
2021/07/29 08:07:16;;;;;;;7.95;2.70;;;29.30;99.90;;;;;;5091605;28;20746;-78
2021/07/29 08:09:42;;;;;;;9.20;2.30;;;30.40;99.90;;;;;;5075858;28;20201;-79
2021/07/29 08:12:08;;;;;;;13.10;2.30;;;30.00;99.90;;;;;;5055747;28;20552;-76
2021/07/29 08:14:36;;;;;;;8.35;2.00;;;30.00;99.90;;;;;;5073953;28;20167;-77
2021/07/29 08:17:03;;;;;;;11.52;1.90;;;29.70;99.90;;;;;;5041274;28;20225;-79
2021/07/29 08:19:29;;;;;;;10.45;2.38;;;29.50;99.90;;;;;;5076665;28;20178;-78
2021/07/29 08:21:54;;;;;;;7.78;2.63;;;28.70;99.90;;;;;;5043439;28;20240;-79
2021/07/29 08:24:20;;;;;;;12.32;2.65;;;28.20;99.90;;;;;;5077588;28;20609;-79
2021/07/29 08:26:46;;;;;;;5.68;2.70;;;28.10;99.90;;;;;;5059749;28;20571;-80
2021/07/29 08:29:11;;;;;;;7.65;2.78;;;28.10;99.90;;;;;;5077413;28;20210;-78
2021/07/29 08:31:37;;;;;;;6.38;2.22;;;29.50;99.90;;;;;;5077646;28;20672;-79
2021/07/29 08:34:02;;;;;;;9.98;2.28;;;28.70;99.90;;;;;;5059067;28;20205;-79
2021/07/29 08:36:28;;;;;;;12.00;2.50;;;27.70;99.90;;;;;;5076747;28;20322;-79
2021/07/29 08:38:54;;;;;;;14.88;2.55;;;27.20;99.90;;;;;;5079498;28;20183;-78
2021/07/29 08:41:20;;;;;;;7.60;2.53;;;28.20;99.90;;;;;;5076256;28;20258;-79
2021/07/29 08:43:46;;;;;;;5.65;2.00;;;28.50;99.90;;;;;;5060782;28;20167;-78
2021/07/29 08:46:17;;;;;;;10.70;2.83;;;28.80;99.90;;;;;;5096751;28;20522;-76
2021/07/29 08:48:45;;;;;;;7.63;3.00;;;30.20;99.90;;;;;;5096439;28;20528;-79
2021/07/29 08:51:13;;;;;;;10.90;2.55;;;30.40;99.90;;;;;;5095425;28;20170;-76
2021/07/29 08:53:39;;;;;;;8.25;2.38;;;30.20;99.90;;;;;;5096313;28;20169;-76
2021/07/29 08:56:04;;;;;;;12.10;2.55;;;29.60;99.90;;;;;;5096598;28;20171;-75
2021/07/29 08:58:30;;;;;;;7.95;2.40;;;29.00;99.90;;;;;;5078092;28;20241;-77
2021/07/29 09:01:11;;;;;;;13.55;2.20;;;28.30;99.90;;;;;;5096181;28;20219;-77
2021/07/29 09:03:37;;;;;;;5.38;2.38;;;27.80;99.90;;;;;;5095630;28;20167;-77
2021/07/29 09:06:07;;;;;;;16.83;2.10;;;29.80;99.90;;;;;;5058290;28;20179;-77
2021/07/29 09:08:53;;;;;;;7.22;2.63;;;31.20;99.90;;;;;;5058157;28;20225;-79
2021/07/29 09:11:32;;;;;;;9.02;2.60;;;30.70;99.90;;;;;;5058045;28;20260;-76
2021/07/29 09:14:03;;;;;;;5.93;1.77;;;30.90;99.90;;;;;;5058165;28;20182;-77
2021/07/29 09:16:29;;;;;;;7.35;2.38;;;32.40;99.90;;;;;;5075993;28;20166;-76
2021/07/29 09:18:54;;;;;;;10.05;2.25;;;31.60;99.90;;;;;;5075917;28;20182;-77
2021/07/29 09:21:20;;;;;;;5.28;1.83;;;29.60;99.90;;;;;;5076010;28;20163;-77
2021/07/29 09:24:08;;;;;;;12.80;2.58;;;28.40;99.90;;;;;;5076332;28;20174;-76
2021/07/29 09:26:53;;;;;;;8.73;2.30;;;27.50;99.90;;;;;;5096161;28;20157;-77
2021/07/29 09:29:23;;;;;;;4.97;1.67;;;27.90;99.90;;;;;;5095751;28;20169;-78
2021/07/29 09:32:04;;;;;;;8.18;2.72;;;28.00;99.90;;;;;;5061311;28;20501;-78
2021/07/29 09:34:50;;;;;;;7.55;2.03;;;29.00;99.90;;;;;;5075866;28;20643;-76
2021/07/29 09:37:18;;;;;;;5.88;1.80;;;31.60;99.90;;;;;;5057530;28;20209;-77
2021/07/29 09:39:45;;;;;;;6.38;2.03;;;32.40;99.90;;;;;;5075607;28;20171;-78
2021/07/29 09:42:16;;;;;;;12.30;2.33;;;32.40;99.90;;;;;;5094845;28;20170;-77
2021/07/29 09:44:44;;;;;;;5.82;2.05;;;31.50;99.90;;;;;;5081204;28;20180;-77
2021/07/29 09:47:10;;;;;;;5.88;1.70;;;29.90;99.90;;;;;;5095674;28;20166;-79
2021/07/29 09:49:36;;;;;;;11.45;2.20;;;29.80;99.90;;;;;;5095651;28;20224;-76
2021/07/29 09:52:03;;;;;;;11.18;1.90;;;31.00;99.90;;;;;;5060770;28;20179;-76
2021/07/29 09:54:29;;;;;;;8.93;2.00;;;31.30;99.90;;;;;;5075440;28;20189;-75
2021/07/29 09:56:55;;;;;;;6.07;1.95;;;29.20;99.90;;;;;;5040770;28;20285;-77
2021/07/29 09:59:21;;;;;;;7.32;2.25;;;29.30;99.90;;;;;;5075445;28;20210;-80
2021/07/29 10:01:48;;;;;;;4.35;1.77;;;30.00;99.90;;;;;;5057071;28;20163;-78
2021/07/29 10:04:15;;;;;;;6.32;1.90;;;31.60;99.90;;;;;;5057249;28;20209;-77
2021/07/29 10:06:42;;;;;;;13.57;2.28;;;33.90;99.50;;;;;;5057402;28;20190;-77
2021/07/29 10:09:15;;;;;;;5.15;2.65;;;34.30;97.00;;;;;;5057554;28;20174;-77
2021/07/29 10:11:48;;;;;;;6.55;1.67;;;33.80;97.30;;;;;;5075710;28;20248;-77
2021/07/29 10:14:47;;;;;;;8.30;1.95;;;33.90;96.40;;;;;;5092339;28;20172;-77
2021/07/29 10:17:13;;;;;;;8.30;2.13;;;33.40;97.20;;;;;;5091715;28;20205;-77
2021/07/29 10:20:20;;;;;;;4.53;1.80;;;31.90;97.60;;;;;;5094496;28;20624;-83
2021/07/29 10:23:09;;;;;;;7.18;2.20;;;30.10;98.30;;;;;;5069201;28;20287;-77
2021/07/29 10:26:03;;;;;;;3.83;1.33;;;32.00;97.60;;;;;;5074298;28;20174;-78
2021/07/29 10:28:38;;;;;;;5.60;1.88;;;31.40;97.50;;;;;;5048203;28;20564;-77
2021/07/29 10:31:06;;;;;;;7.90;2.83;;;30.40;98.00;;;;;;5056444;28;20177;-77
2021/07/29 10:33:31;;;;;;;10.32;2.05;;;30.10;98.40;;;;;;5057030;28;20617;-76
2021/07/29 10:35:58;;;;;;;5.45;1.90;;;31.30;98.90;;;;;;5056051;28;20177;-77
2021/07/29 10:38:39;;;;;;;4.70;2.03;;;33.30;95.30;;;;;;5054938;28;20201;-76
2021/07/29 10:41:31;;;;;;;10.13;2.38;;;32.30;95.60;;;;;;5055369;28;20217;-77
2021/07/29 10:43:56;;;;;;;7.13;2.13;;;31.90;96.80;;;;;;5056383;28;20215;-75
2021/07/29 10:46:54;;;;;;;15.70;2.17;;;32.70;95.70;;;;;;5067204;28;20228;-74
2021/07/29 10:49:20;;;;;;;6.68;1.95;;;32.10;95.30;;;;;;5094481;28;20174;-74
2021/07/29 10:52:07;;;;;;;9.07;2.00;;;32.10;95.40;;;;;;5083342;28;20177;-75
2021/07/29 10:54:36;;;;;;;8.55;2.20;;;31.40;96.50;;;;;;5056213;28;20177;-76
2021/07/29 10:57:03;;;;;;;10.98;2.22;;;30.90;96.40;;;;;;5093612;28;20528;-80
2021/07/29 10:59:31;;;;;;;4.82;1.70;;;29.40;96.40;;;;;;5075703;28;20233;-81
2021/07/29 11:01:58;;;;;;;7.85;2.00;;;28.30;97.50;;;;;;5075784;28;20177;-81
2021/07/29 11:04:28;;;;;;;8.30;1.90;;;27.60;98.60;;;;;;5060569;28;20198;-84
2021/07/29 11:07:00;;;;;;;7.15;2.03;;;27.10;99.10;;;;;;5039432;28;20194;-74
2021/07/29 11:09:35;;;;;;;6.00;2.35;;;26.50;99.90;;;;;;5055983;28;20163;-78
2021/07/29 11:12:01;;;;;;;9.55;2.00;;;25.60;99.90;;;;;;5056528;28;20186;-78
2021/07/29 11:14:30;;;;;;;10.00;2.25;;;25.00;99.90;;;;;;5064031;28;20171;-80
2021/07/29 11:16:57;;;;;;;8.65;2.58;;;25.10;99.90;;;;;;5073132;28;20195;-79
2021/07/29 11:19:24;;;;;;;7.97;2.13;;;25.70;99.90;;;;;;5055333;28;20175;-78
2021/07/29 11:22:06;;;;;;;10.48;2.00;;;26.90;99.90;;;;;;5073302;28;20313;-77
2021/07/29 11:24:34;;;;;;;6.95;2.25;;;27.20;99.90;;;;;;5088147;28;20202;-79
2021/07/29 11:27:01;;;;;;;10.85;2.42;;;28.40;99.90;;;;;;5075848;28;20170;-80
2021/07/29 11:29:26;;;;;;;11.15;2.08;;;29.90;99.70;;;;;;5067500;28;20163;-79
2021/07/29 11:31:54;;;;;;;6.40;1.90;;;31.20;99.90;;;;;;5073600;28;20189;-78
2021/07/29 11:34:40;;;;;;;7.40;1.80;;;31.30;98.90;;;;;;5085311;28;20214;-79
2021/07/29 11:37:05;;;;;;;7.00;1.80;;;29.90;97.00;;;;;;5074516;28;20210;-78
2021/07/29 11:39:41;;;;;;;6.75;1.92;;;29.40;96.80;;;;;;5047158;28;20200;-79
2021/07/29 11:42:06;;;;;;;4.78;1.80;;;28.20;97.80;;;;;;5060522;28;20186;-78
2021/07/29 11:44:43;;;;;;;7.43;2.05;;;28.20;99.40;;;;;;5063499;28;20189;-80
2021/07/29 11:47:09;;;;;;;7.07;1.80;;;28.60;99.20;;;;;;5075493;28;20179;-78
2021/07/29 11:49:51;;;;;;;5.50;1.98;;;29.30;99.30;;;;;;5069585;28;20253;-78
2021/07/29 11:52:19;;;;;;;8.85;2.15;;;30.20;97.80;;;;;;5076586;28;20169;-80
2021/07/29 11:54:45;;;;;;;9.75;1.95;;;29.80;98.50;;;;;;5077262;28;20620;-79
2021/07/29 11:57:12;;;;;;;9.65;2.13;;;28.40;99.40;;;;;;5059297;28;20196;-79
2021/07/29 11:59:40;;;;;;;10.80;2.53;;;28.80;99.90;;;;;;5077375;28;20163;-78
2021/07/29 12:02:08;;;;;;;5.68;1.80;;;28.50;99.10;;;;;;5062612;28;20182;-79
2021/07/29 12:04:39;;;;;;;6.38;1.73;;;29.30;99.90;;;;;;5083343;28;20178;-81
2021/07/29 12:07:05;;;;;;;9.73;2.05;;;29.40;97.60;;;;;;5097426;28;20178;-78
2021/07/29 12:09:35;;;;;;;5.85;2.05;;;29.40;98.80;;;;;;5064996;28;20178;-79
2021/07/29 12:12:02;;;;;;;7.85;2.10;;;30.50;98.90;;;;;;5042803;28;20182;-78
2021/07/29 12:14:28;;;;;;;9.75;1.70;;;31.30;97.60;;;;;;5061740;28;20174;-78
2021/07/29 12:16:55;;;;;;;16.08;2.50;;;31.30;97.00;;;;;;5053721;28;20206;-78
2021/07/29 12:19:22;;;;;;;6.07;2.17;;;31.10;96.90;;;;;;5042084;28;20179;-78
2021/07/29 12:21:49;;;;;;;8.15;1.90;;;30.20;96.70;;;;;;5087625;28;20206;-78
2021/07/29 12:24:16;;;;;;;11.88;2.40;;;30.20;96.50;;;;;;5088068;28;20178;-78
2021/07/29 12:27:02;;;;;;;7.90;2.40;;;29.70;97.60;;;;;;5095027;28;20201;-81
2021/07/29 12:29:44;;;;;;;8.98;2.50;;;29.50;98.10;;;;;;5088082;28;20174;-82
2021/07/29 12:32:29;;;;;;;8.02;2.28;;;28.50;99.30;;;;;;5050656;28;20170;-81
2021/07/29 12:34:55;;;;;;;5.00;2.10;;;27.60;99.90;;;;;;5061899;28;20199;-79
2021/07/29 12:37:31;;;;;;;6.65;2.10;;;27.00;99.90;;;;;;5077859;28;20199;-78
2021/07/29 12:39:57;;;;;;;7.15;2.00;;;26.50;99.90;;;;;;5058359;28;20198;-78
2021/07/29 12:42:25;;;;;;;6.35;2.55;;;26.30;99.90;;;;;;5076681;28;20171;-78
2021/07/29 12:45:05;;;;;;;8.57;2.40;;;26.20;99.90;;;;;;5063972;28;20169;-79
2021/07/29 12:47:31;;;;;;;7.75;2.30;;;25.70;99.90;;;;;;5061218;28;20167;-79